Time;durP1;ratioP1;P1;durP2;ratioP2;P2;SDS_P1;SDS_P2;PMS_P1;PMS_P2;Temp;Humidity;BMP_temperature;BMP_pressure;BME280_temperature;BME280_humidity;BME280_pressure;Samples;Min_cycle;Max_cycle;Signal;HPM_P1;HPM_P2
2023/07/30 00:01:56;;;;;;;9.30;2.33;;;;;;;17.82;100.00;100853.09;5260811;28;20043;-74
2023/07/30 00:04:27;;;;;;;10.93;3.17;;;;;;;17.75;100.00;100849.34;5246526;28;20029;-73
2023/07/30 00:06:58;;;;;;;8.03;2.90;;;;;;;17.85;100.00;100847.53;5251424;28;20037;-73
2023/07/30 00:09:30;;;;;;;8.03;2.60;;;;;;;17.71;100.00;100848.78;5262806;28;20032;-72
2023/07/30 00:12:02;;;;;;;8.77;2.43;;;;;;;17.75;100.00;100852.00;5241753;28;20143;-73
2023/07/30 00:14:34;;;;;;;8.27;2.20;;;;;;;17.74;100.00;100848.50;5254351;28;20040;-72
2023/07/30 00:17:05;;;;;;;10.37;2.50;;;;;;;17.67;100.00;100844.72;5252674;28;20031;-73
2023/07/30 00:19:36;;;;;;;8.07;2.43;;;;;;;17.67;100.00;100834.16;5254061;28;20048;-74
2023/07/30 00:22:08;;;;;;;9.43;2.90;;;;;;;17.64;100.00;100837.91;5251241;28;20036;-73
2023/07/30 00:24:39;;;;;;;9.33;3.70;;;;;;;17.63;100.00;100844.19;5255021;28;20035;-73
2023/07/30 00:27:10;;;;;;;7.60;2.40;;;;;;;17.61;100.00;100846.13;5261064;28;20844;-73
2023/07/30 00:29:42;;;;;;;9.63;3.43;;;;;;;17.49;100.00;100849.91;5250762;28;20033;-73
2023/07/30 00:32:15;;;;;;;8.87;2.93;;;;;;;17.59;100.00;100841.94;5254088;28;20482;-73
2023/07/30 00:34:47;;;;;;;5.25;2.53;;;;;;;17.57;100.00;100844.75;5255361;28;20041;-73
2023/07/30 00:37:18;;;;;;;9.47;2.77;;;;;;;17.56;100.00;100848.34;5256407;28;20031;-73
2023/07/30 00:39:49;;;;;;;7.33;2.70;;;;;;;17.52;100.00;100857.56;5262362;28;20052;-73
2023/07/30 00:42:20;;;;;;;7.67;2.87;;;;;;;17.44;100.00;100858.22;5258340;28;20029;-73
2023/07/30 00:44:52;;;;;;;9.60;3.60;;;;;;;17.37;100.00;100851.81;5242526;28;20095;-73
2023/07/30 00:47:23;;;;;;;8.37;3.10;;;;;;;17.36;100.00;100858.09;5256252;28;20163;-73
2023/07/30 00:49:55;;;;;;;10.33;2.90;;;;;;;17.29;100.00;100860.44;5250423;28;20112;-73
2023/07/30 00:52:26;;;;;;;7.50;3.10;;;;;;;17.29;100.00;100861.28;5252056;28;20058;-72
2023/07/30 00:54:59;;;;;;;5.23;3.00;;;;;;;17.36;100.00;100864.22;5249218;28;20044;-72
2023/07/30 00:57:31;;;;;;;8.63;3.37;;;;;;;17.34;100.00;100866.16;5258617;28;20020;-73
2023/07/30 01:00:05;;;;;;;8.33;3.10;;;;;;;17.27;100.00;100867.69;5258584;28;20077;-74
2023/07/30 01:02:36;;;;;;;12.82;4.13;;;;;;;17.29;100.00;100871.03;5235553;28;20052;-73
2023/07/30 01:05:08;;;;;;;8.23;3.40;;;;;;;17.21;100.00;100871.69;5252678;28;20060;-72
2023/07/30 01:07:39;;;;;;;7.57;2.83;;;;;;;17.21;100.00;100873.53;5272349;28;20077;-72
2023/07/30 01:10:11;;;;;;;10.30;3.20;;;;;;;17.09;100.00;100873.56;5272755;28;20051;-72
2023/07/30 01:12:43;;;;;;;12.37;3.53;;;;;;;17.06;100.00;100876.50;5248937;28;20528;-72
2023/07/30 01:15:15;;;;;;;9.77;3.20;;;;;;;16.98;100.00;100877.19;5249862;28;20052;-73
2023/07/30 01:17:47;;;;;;;9.07;3.37;;;;;;;17.07;100.00;100885.28;5252518;28;20484;-73
2023/07/30 01:20:18;;;;;;;9.77;3.67;;;;;;;17.07;100.00;100885.28;5251786;28;20025;-72
2023/07/30 01:22:49;;;;;;;11.57;3.10;;;;;;;16.98;100.00;100887.75;5252118;28;20033;-72
2023/07/30 01:25:24;;;;;;;11.00;2.90;;;;;;;17.07;100.00;100890.56;5252083;28;20100;-72
2023/07/30 01:28:00;;;;;;;10.60;3.33;;;;;;;16.99;100.00;100893.88;5252070;28;20063;-74
2023/07/30 01:30:41;;;;;;;10.07;3.37;;;;;;;17.05;100.00;100893.34;5255180;28;20043;-73
2023/07/30 01:33:13;;;;;;;9.70;3.07;;;;;;;16.93;100.00;100901.38;5272214;28;20040;-73
2023/07/30 01:35:44;;;;;;;8.10;2.90;;;;;;;16.89;100.00;100902.63;5272579;28;20037;-72
2023/07/30 01:38:16;;;;;;;11.17;3.57;;;;;;;16.80;100.00;100895.47;5258743;28;20021;-72
2023/07/30 01:40:48;;;;;;;9.67;3.10;;;;;;;16.84;100.00;100902.19;5254211;28;20017;-73
2023/07/30 01:43:19;;;;;;;10.13;3.23;;;;;;;16.76;100.00;100897.53;5236419;28;20064;-73
2023/07/30 01:45:50;;;;;;;8.10;3.20;;;;;;;16.76;100.00;100899.34;5269246;28;20028;-72
2023/07/30 01:48:22;;;;;;;12.90;3.57;;;;;;;16.75;100.00;100905.59;5256592;28;20571;-73
2023/07/30 01:50:53;;;;;;;8.43;2.77;;;;;;;16.85;100.00;100909.13;5257891;28;20024;-74
2023/07/30 01:53:24;;;;;;;9.67;3.70;;;;;;;16.84;100.00;100907.47;5263564;28;20071;-73
2023/07/30 01:55:56;;;;;;;9.00;3.23;;;;;;;16.77;100.00;100903.66;5255159;28;20133;-71
2023/07/30 01:58:27;;;;;;;15.27;3.63;;;;;;;16.80;100.00;100898.13;5253678;28;20048;-72
2023/07/30 02:00:58;;;;;;;12.60;3.93;;;;;;;16.83;100.00;100904.94;5234051;28;20048;-73
2023/07/30 02:03:29;;;;;;;12.20;3.93;;;;;;;16.72;100.00;100900.59;5254932;28;20030;-74
2023/07/30 02:06:01;;;;;;;15.40;4.23;;;;;;;16.67;100.00;100908.88;5253515;28;20024;-74
2023/07/30 02:08:32;;;;;;;9.77;3.63;;;;;;;16.61;100.00;100902.34;5252026;28;20021;-73
2023/07/30 02:11:03;;;;;;;9.27;3.53;;;;;;;16.69;100.00;100909.59;5251268;28;20179;-73
2023/07/30 02:13:35;;;;;;;12.00;3.43;;;;;;;16.65;100.00;100902.91;5262078;28;20031;-73
2023/07/30 02:16:06;;;;;;;16.40;4.70;;;;;;;16.63;100.00;100900.41;5253774;28;20472;-72
2023/07/30 02:18:37;;;;;;;12.77;4.07;;;;;;;16.65;100.00;100898.44;5254215;28;20433;-72
2023/07/30 02:21:09;;;;;;;10.73;3.50;;;;;;;16.65;100.00;100890.50;5271546;28;20035;-72
2023/07/30 02:23:40;;;;;;;13.67;4.53;;;;;;;16.62;100.00;100893.44;5253871;28;20124;-73
2023/07/30 02:26:11;;;;;;;16.63;4.00;;;;;;;16.63;100.00;100883.69;5272914;28;20681;-72
2023/07/30 02:28:43;;;;;;;11.43;3.03;;;;;;;16.61;100.00;100888.28;5257495;28;20035;-73
2023/07/30 02:31:14;;;;;;;14.67;3.93;;;;;;;16.61;100.00;100891.75;5271840;28;20404;-72
2023/07/30 02:33:45;;;;;;;17.57;4.57;;;;;;;16.64;100.00;100896.78;5254937;28;20116;-73
2023/07/30 02:36:17;;;;;;;16.13;5.30;;;;;;;16.68;100.00;100900.84;5267698;28;20075;-73
2023/07/30 02:38:48;;;;;;;13.07;4.30;;;;;;;16.70;100.00;100900.72;5276054;28;20029;-73
2023/07/30 02:41:20;;;;;;;11.57;3.37;;;;;;;16.68;100.00;100897.34;5275399;28;20016;-74
2023/07/30 02:43:51;;;;;;;13.87;4.70;;;;;;;16.68;100.00;100892.06;5274931;28;20024;-74
2023/07/30 02:46:22;;;;;;;10.43;4.23;;;;;;;16.62;100.00;100898.72;5275011;28;20031;-73
2023/07/30 02:48:53;;;;;;;16.63;4.77;;;;;;;16.66;100.00;100902.78;5259105;28;20431;-73
2023/07/30 02:51:25;;;;;;;13.27;5.30;;;;;;;16.71;100.00;100896.25;5261647;28;20051;-73
2023/07/30 02:54:04;;;;;;;12.07;4.63;;;;;;;16.83;100.00;100897.00;5275264;28;20025;-73
2023/07/30 02:56:35;;;;;;;15.70;3.50;;;;;;;16.66;100.00;100894.00;5240416;28;20036;-72
2023/07/30 02:59:06;;;;;;;12.87;3.53;;;;;;;16.69;100.00;100897.22;5258369;28;20471;-73
2023/07/30 03:01:38;;;;;;;19.83;4.33;;;;;;;16.69;100.00;100899.88;5275591;28;20566;-73
2023/07/30 03:04:09;;;;;;;8.30;3.70;;;;;;;16.71;100.00;100902.38;5268720;28;20056;-73
2023/07/30 03:06:41;;;;;;;11.17;3.63;;;;;;;16.64;100.00;100898.59;5257011;28;20068;-73
2023/07/30 03:09:12;;;;;;;12.07;4.50;;;;;;;16.69;100.00;100897.22;5255033;28;20090;-72
2023/07/30 03:11:43;;;;;;;14.90;4.47;;;;;;;16.67;100.00;100900.97;5250787;28;20117;-73
2023/07/30 03:14:15;;;;;;;12.30;3.73;;;;;;;16.68;100.00;100902.66;5255643;28;20043;-72
2023/07/30 03:16:47;;;;;;;14.87;4.47;;;;;;;16.68;100.00;100890.28;5253757;28;20532;-73
2023/07/30 03:19:19;;;;;;;15.87;5.03;;;;;;;16.67;100.00;100898.31;5253700;28;20029;-73
2023/07/30 03:21:50;;;;;;;15.93;4.30;;;;;;;16.64;100.00;100893.28;5249036;28;20067;-73
2023/07/30 03:24:21;;;;;;;13.30;4.47;;;;;;;16.56;100.00;100894.78;5235731;28;20090;-73
2023/07/30 03:26:52;;;;;;;12.27;3.87;;;;;;;16.67;100.00;100901.81;5254165;28;20051;-73
2023/07/30 03:29:24;;;;;;;16.97;5.00;;;;;;;16.64;100.00;100896.78;5257532;28;20151;-73
2023/07/30 03:31:55;;;;;;;12.47;4.00;;;;;;;16.52;100.00;100882.81;5258728;28;21079;-73
2023/07/30 03:34:26;;;;;;;10.90;3.50;;;;;;;16.66;100.00;100900.13;5255405;28;20037;-73
2023/07/30 03:37:00;;;;;;;14.60;4.20;;;;;;;16.61;100.00;100899.69;5259922;28;20178;-74
2023/07/30 03:39:31;;;;;;;21.10;4.93;;;;;;;16.67;100.00;100907.09;5255580;28;20036;-73
2023/07/30 03:42:02;;;;;;;12.97;4.10;;;;;;;16.62;100.00;100896.06;5256703;28;20496;-74
2023/07/30 03:44:34;;;;;;;15.50;5.03;;;;;;;16.72;100.00;100904.03;5260957;28;20257;-74
2023/07/30 03:47:05;;;;;;;11.23;3.30;;;;;;;16.68;100.00;100908.78;5256237;28;20032;-73
2023/07/30 03:49:37;;;;;;;15.40;4.40;;;;;;;16.67;100.00;100903.59;5249974;28;20530;-73
2023/07/30 03:52:08;;;;;;;15.20;3.77;;;;;;;16.78;100.00;100914.13;5260659;28;20020;-72
2023/07/30 03:54:39;;;;;;;16.53;4.80;;;;;;;16.69;100.00;100910.44;5255737;28;20043;-73
2023/07/30 03:57:11;;;;;;;12.20;4.13;;;;;;;16.68;100.00;100919.38;5261209;28;20757;-73
2023/07/30 03:59:42;;;;;;;13.57;4.83;;;;;;;16.73;100.00;100913.66;5253569;28;20021;-73
2023/07/30 04:02:15;;;;;;;18.00;3.80;;;;;;;16.76;100.00;100910.75;5252209;28;20032;-72
2023/07/30 04:04:48;;;;;;;16.63;5.27;;;;;;;16.76;100.00;100920.50;5254514;28;20036;-73
2023/07/30 04:07:20;;;;;;;15.00;4.70;;;;;;;16.79;100.00;100920.25;5260888;28;20190;-73
2023/07/30 04:09:51;;;;;;;19.50;5.63;;;;;;;16.79;100.00;100925.53;5252169;28;20053;-73
2023/07/30 04:12:22;;;;;;;18.17;4.77;;;;;;;16.78;100.00;100919.41;5245917;28;20024;-73
2023/07/30 04:14:54;;;;;;;14.70;3.83;;;;;;;16.75;100.00;100918.81;5251399;28;20098;-73
2023/07/30 04:17:25;;;;;;;14.43;4.20;;;;;;;16.78;100.00;100931.78;5255290;28;20492;-73
2023/07/30 04:19:56;;;;;;;13.67;4.70;;;;;;;16.71;100.00;100925.34;5262348;28;20032;-73
2023/07/30 04:22:28;;;;;;;16.23;4.50;;;;;;;16.65;100.00;100919.59;5249423;28;20095;-73
2023/07/30 04:24:59;;;;;;;18.43;4.80;;;;;;;16.65;100.00;100922.25;5245826;28;20067;-73
2023/07/30 04:27:30;;;;;;;17.43;5.77;;;;;;;16.64;100.00;100911.81;5245527;28;20494;-73
2023/07/30 04:30:02;;;;;;;14.17;4.60;;;;;;;16.73;100.00;100926.91;5252508;28;20083;-73
2023/07/30 04:32:33;;;;;;;15.07;5.57;;;;;;;16.69;100.00;100920.19;5249576;28;20468;-73
2023/07/30 04:35:05;;;;;;;20.47;5.30;;;;;;;16.73;100.00;100923.41;5225533;28;21141;-73
2023/07/30 04:37:36;;;;;;;16.40;5.00;;;;;;;16.72;100.00;100924.38;5251435;28;20119;-74
2023/07/30 04:40:08;;;;;;;18.00;4.87;;;;;;;16.76;100.00;100925.78;5249416;28;20049;-74
2023/07/30 04:42:40;;;;;;;19.80;5.50;;;;;;;16.83;100.00;100921.66;5253805;28;20094;-72
2023/07/30 04:45:11;;;;;;;20.37;6.93;;;;;;;16.83;100.00;100912.88;5256332;28;20140;-72
2023/07/30 04:47:42;;;;;;;19.13;5.60;;;;;;;16.88;100.00;100927.38;5250432;28;20476;-73
2023/07/30 04:50:14;;;;;;;17.50;5.57;;;;;;;16.91;100.00;100923.66;5247340;28;20043;-73
2023/07/30 04:52:45;;;;;;;18.70;5.80;;;;;;;16.93;100.00;100921.72;5253660;28;20086;-72
2023/07/30 04:55:16;;;;;;;16.20;6.83;;;;;;;16.87;100.00;100916.94;5253509;28;20037;-72
2023/07/30 04:57:48;;;;;;;19.67;5.93;;;;;;;16.92;100.00;100926.16;5248919;28;20082;-73
2023/07/30 05:00:19;;;;;;;19.37;5.30;;;;;;;16.92;100.00;100926.16;5243606;28;20317;-72
2023/07/30 05:02:50;;;;;;;22.07;6.07;;;;;;;16.96;100.00;100925.88;5234599;28;20498;-72
2023/07/30 05:05:22;;;;;;;24.87;6.03;;;;;;;16.93;100.00;100930.47;5248750;28;20028;-73
2023/07/30 05:07:53;;;;;;;20.47;5.50;;;;;;;17.02;100.00;100941.22;5270219;28;20028;-73
2023/07/30 05:10:24;;;;;;;20.03;6.00;;;;;;;17.02;100.00;100942.06;5272170;28;20083;-74
2023/07/30 05:12:56;;;;;;;25.67;5.87;;;;;;;17.02;100.00;100943.88;5273100;28;20029;-74
2023/07/30 05:15:27;;;;;;;20.80;5.83;;;;;;;17.02;100.00;100951.81;5270787;28;20060;-72
2023/07/30 05:17:58;;;;;;;16.70;5.80;;;;;;;17.03;100.00;100951.69;5272531;28;20037;-73
2023/07/30 05:20:30;;;;;;;16.10;5.80;;;;;;;17.07;100.00;100959.38;5273022;28;20033;-71
2023/07/30 05:23:02;;;;;;;18.50;5.10;;;;;;;17.02;100.00;100955.28;5273205;28;20037;-73
2023/07/30 05:25:33;;;;;;;19.37;5.50;;;;;;;17.06;100.00;100955.88;5266476;28;20418;-72
2023/07/30 05:28:04;;;;;;;17.03;4.97;;;;;;;17.08;100.00;100956.59;5272486;28;20032;-73
2023/07/30 05:30:36;;;;;;;21.27;5.40;;;;;;;17.05;100.00;100964.78;5274137;28;20024;-73
2023/07/30 05:33:07;;;;;;;20.57;5.87;;;;;;;17.05;100.00;100960.31;5274438;28;20103;-73
2023/07/30 05:35:38;;;;;;;22.27;6.30;;;;;;;17.01;100.00;100950.13;5273335;28;20110;-73
2023/07/30 05:38:09;;;;;;;21.63;6.90;;;;;;;17.04;100.00;100945.44;5273008;28;20066;-73
2023/07/30 05:40:41;;;;;;;24.03;6.27;;;;;;;16.95;100.00;100950.69;5267224;28;20406;-72
2023/07/30 05:43:13;;;;;;;18.47;5.30;;;;;;;17.00;100.00;100945.84;5250847;28;20040;-73
2023/07/30 05:45:44;;;;;;;22.63;6.43;;;;;;;17.05;100.00;100956.84;5269869;28;20032;-72
2023/07/30 05:48:15;;;;;;;29.73;7.67;;;;;;;17.06;100.00;100940.00;5272525;28;20107;-72
2023/07/30 05:50:46;;;;;;;23.27;7.10;;;;;;;16.98;100.00;100942.47;5263242;28;20103;-73
2023/07/30 05:53:18;;;;;;;18.17;6.10;;;;;;;17.06;100.00;100945.28;5251959;28;20067;-73
2023/07/30 05:55:49;;;;;;;21.40;6.03;;;;;;;17.14;100.00;100953.44;5249130;28;20078;-73
2023/07/30 05:58:20;;;;;;;19.57;6.07;;;;;;;17.23;100.00;100956.25;5253270;28;20099;-73
2023/07/30 06:00:52;;;;;;;25.50;6.40;;;;;;;17.26;100.00;100953.34;5273533;28;20100;-74
2023/07/30 06:03:23;;;;;;;18.77;6.33;;;;;;;17.27;100.00;100957.66;5257784;28;20527;-73
2023/07/30 06:05:54;;;;;;;27.60;7.63;;;;;;;17.19;100.00;100953.06;5237916;28;20065;-73
2023/07/30 06:08:26;;;;;;;30.43;7.43;;;;;;;17.28;100.00;100961.97;5261598;28;20036;-74
2023/07/30 06:11:02;;;;;;;18.17;6.00;;;;;;;17.27;100.00;100944.44;5276153;28;20106;-73
2023/07/30 06:13:34;;;;;;;18.87;5.37;;;;;;;17.25;100.00;100957.81;5274880;28;20025;-73
2023/07/30 06:16:05;;;;;;;25.20;5.97;;;;;;;17.31;100.00;100964.38;5257737;28;20094;-73
2023/07/30 06:18:36;;;;;;;25.87;6.13;;;;;;;17.31;100.00;100964.38;5275368;28;20017;-73
2023/07/30 06:21:08;;;;;;;22.40;6.47;;;;;;;17.34;100.00;100964.09;5275795;28;20090;-73
2023/07/30 06:23:39;;;;;;;22.07;6.30;;;;;;;17.37;100.00;100963.81;5258060;28;20098;-72
2023/07/30 06:26:10;;;;;;;26.50;6.30;;;;;;;17.40;100.00;100968.84;5256027;28;20119;-73
2023/07/30 06:28:42;;;;;;;25.83;6.77;;;;;;;17.42;100.00;100968.72;5256637;28;20032;-73
2023/07/30 06:31:13;;;;;;;26.30;6.73;;;;;;;17.45;100.00;100962.31;5276302;28;20596;-73
2023/07/30 06:33:44;;;;;;;22.27;5.87;;;;;;;17.52;100.00;100968.75;5276087;28;20059;-73
2023/07/30 06:36:16;;;;;;;20.47;6.30;;;;;;;17.56;100.00;100966.69;5275107;28;20028;-73
2023/07/30 06:38:47;;;;;;;22.23;6.73;;;;;;;17.57;100.00;100961.25;5276168;28;20032;-73
2023/07/30 06:41:18;;;;;;;21.40;6.10;;;;;;;17.59;100.00;100953.16;5276010;28;20044;-73
2023/07/30 06:43:49;;;;;;;18.90;5.90;;;;;;;17.69;100.00;100963.78;5260459;28;20176;-73
2023/07/30 06:46:21;;;;;;;19.23;5.07;;;;;;;17.71;100.00;100965.31;5255012;28;20521;-74
2023/07/30 06:48:52;;;;;;;17.67;5.13;;;;;;;17.77;100.00;100961.28;5254521;28;20025;-74
2023/07/30 06:51:24;;;;;;;19.67;5.27;;;;;;;17.86;100.00;100959.63;5254723;28;20048;-74
2023/07/30 06:53:55;;;;;;;17.70;4.93;;;;;;;17.93;100.00;100960.75;5255249;28;20028;-72
2023/07/30 06:56:27;;;;;;;21.70;5.93;;;;;;;18.04;100.00;100973.03;5252591;28;20082;-73
2023/07/30 06:58:58;;;;;;;20.77;4.67;;;;;;;17.94;100.00;100967.75;5274994;28;20025;-73
2023/07/30 07:01:30;;;;;;;18.63;5.00;;;;;;;18.11;100.00;100971.50;5275501;28;20036;-73
2023/07/30 07:04:01;;;;;;;21.30;5.47;;;;;;;18.20;100.00;100972.53;5271802;28;20444;-73
2023/07/30 07:06:32;;;;;;;18.27;5.57;;;;;;;18.22;100.00;100969.72;5248113;28;20124;-72
2023/07/30 07:09:04;;;;;;;17.70;4.47;;;;;;;18.28;100.00;100976.28;5273351;28;20058;-73
2023/07/30 07:11:35;;;;;;;20.87;6.73;;;;;;;18.29;100.00;100970.00;5273473;28;20045;-73
2023/07/30 07:14:06;;;;;;;18.67;5.63;;;;;;;18.21;100.00;100986.59;5273897;28;20079;-74
2023/07/30 07:16:37;;;;;;;18.20;4.83;;;;;;;18.16;100.00;100975.56;5275000;28;20119;-72
2023/07/30 07:19:09;;;;;;;26.40;5.93;;;;;;;18.33;100.00;100985.50;5275216;28;20025;-73
2023/07/30 07:21:40;;;;;;;22.33;5.23;;;;;;;18.66;100.00;100982.53;5275417;28;20029;-71
2023/07/30 07:24:11;;;;;;;17.20;4.27;;;;;;;18.91;100.00;100963.47;5274266;28;20570;-73
2023/07/30 07:26:43;;;;;;;19.40;3.93;;;;;;;19.18;100.00;100968.00;5275118;28;20033;-74
2023/07/30 07:29:14;;;;;;;17.27;4.70;;;;;;;19.53;100.00;100970.94;5256243;28;20040;-74
2023/07/30 07:31:46;;;;;;;15.37;4.63;;;;;;;19.77;100.00;100964.25;5236442;28;20116;-73
2023/07/30 07:34:17;;;;;;;20.20;4.47;;;;;;;20.17;100.00;100975.44;5261191;28;20024;-73
2023/07/30 07:36:48;;;;;;;18.13;5.23;;;;;;;20.23;100.00;100968.66;5274633;28;20029;-73
2023/07/30 07:39:20;;;;;;;20.70;5.87;;;;;;;20.41;100.00;100986.44;5274525;28;20032;-73
2023/07/30 07:41:51;;;;;;;21.70;4.23;;;;;;;20.35;100.00;100995.84;5274973;28;20203;-73
2023/07/30 07:44:23;;;;;;;19.33;4.27;;;;;;;20.24;100.00;100986.31;5272961;28;20463;-72
2023/07/30 07:46:54;;;;;;;16.83;3.87;;;;;;;19.96;100.00;100983.69;5274735;28;20037;-73
2023/07/30 07:49:25;;;;;;;20.13;4.90;;;;;;;19.91;100.00;100989.47;5273866;28;20028;-73
2023/07/30 07:51:56;;;;;;;21.67;4.70;;;;;;;19.72;100.00;100987.75;5261182;28;20052;-73
2023/07/30 07:54:28;;;;;;;23.37;4.23;;;;;;;19.74;100.00;100988.41;5254353;28;20874;-73
2023/07/30 07:56:59;;;;;;;20.97;4.53;;;;;;;19.77;100.00;100990.81;5274199;28;20028;-73
2023/07/30 07:59:30;;;;;;;17.70;4.03;;;;;;;19.90;100.00;100994.91;5273075;28;20052;-73
2023/07/30 08:02:02;;;;;;;16.13;3.73;;;;;;;19.98;100.00;100983.53;5274435;28;20028;-73
2023/07/30 08:04:34;;;;;;;23.40;5.70;;;;;;;20.44;100.00;100980.78;5265527;28;20029;-74
2023/07/30 08:07:05;;;;;;;16.93;4.80;;;;;;;20.75;100.00;100996.31;5244617;28;20036;-74
2023/07/30 08:09:36;;;;;;;21.57;4.80;;;;;;;20.67;100.00;100982.97;5274013;28;20021;-73
2023/07/30 08:12:08;;;;;;;17.37;4.60;;;;;;;20.57;100.00;100995.53;5273714;28;20051;-74
2023/07/30 08:14:39;;;;;;;21.87;4.47;;;;;;;20.63;100.00;101000.25;5273168;28;20694;-73
2023/07/30 08:17:11;;;;;;;17.30;4.33;;;;;;;20.90;100.00;100999.25;5255640;28;20043;-73
2023/07/30 08:19:42;;;;;;;18.43;4.50;;;;;;;20.89;100.00;101002.91;5274292;28;20028;-74
2023/07/30 08:22:13;;;;;;;15.53;3.90;;;;;;;20.82;100.00;101003.69;5274163;28;20021;-73
2023/07/30 08:24:44;;;;;;;15.93;3.50;;;;;;;20.72;100.00;100998.47;5254780;28;20036;-73
2023/07/30 08:27:16;;;;;;;17.10;3.97;;;;;;;20.62;100.00;101009.19;5273923;28;20123;-73
2023/07/30 08:29:47;;;;;;;14.57;3.97;;;;;;;20.43;100.00;101003.06;5272714;28;20070;-72
2023/07/30 08:32:18;;;;;;;20.50;4.83;;;;;;;20.35;100.00;101018.97;5260627;28;20033;-74
2023/07/30 08:34:50;;;;;;;17.70;5.70;;;;;;;20.35;100.00;101005.69;5271265;28;20040;-72
2023/07/30 08:37:21;;;;;;;16.17;3.93;;;;;;;20.34;100.00;101007.50;5272613;28;20036;-73
2023/07/30 08:39:52;;;;;;;14.53;3.43;;;;;;;20.22;100.00;101004.22;5273262;28;20033;-72
2023/07/30 08:42:24;;;;;;;20.40;4.53;;;;;;;20.28;100.00;101010.78;5273690;28;20074;-73
2023/07/30 08:44:55;;;;;;;16.27;4.73;;;;;;;20.26;100.00;101007.44;5244663;28;20094;-73
2023/07/30 08:47:27;;;;;;;16.93;3.67;;;;;;;20.28;100.00;101016.09;5251269;28;20552;-73
2023/07/30 08:49:58;;;;;;;16.37;3.93;;;;;;;20.15;100.00;101008.47;5270822;28;20835;-72
2023/07/30 08:52:30;;;;;;;15.43;5.20;;;;;;;20.09;100.00;101003.78;5254752;28;20469;-73
2023/07/30 08:55:03;;;;;;;11.47;3.97;;;;;;;19.94;100.00;101005.09;5273406;28;20476;-73
2023/07/30 08:57:35;;;;;;;16.10;3.67;;;;;;;19.94;100.00;101012.22;5273091;28;20032;-73
2023/07/30 09:00:08;;;;;;;18.33;5.03;;;;;;;20.00;100.00;101000.97;5253421;28;20708;-72
2023/07/30 09:02:59;;;;;;;14.77;3.85;;;;;;;20.40;100.00;101006.06;5236797;28;20479;-73
2023/07/30 09:05:31;;;;;;;15.20;4.57;;;;;;;20.35;100.00;101003.00;5256315;28;20388;-72
2023/07/30 09:08:02;;;;;;;21.97;3.90;;;;;;;20.37;100.00;100999.19;5246514;28;20489;-71
2023/07/30 09:10:33;;;;;;;17.50;4.97;;;;;;;20.75;100.00;100990.19;5256905;28;20049;-70
2023/07/30 09:13:04;;;;;;;13.52;3.95;;;;;;;21.11;99.51;100991.91;5247495;28;20029;-73
2023/07/30 09:15:37;;;;;;;15.27;4.03;;;;;;;21.63;90.46;100990.13;5258926;28;20029;-73
2023/07/30 09:18:09;;;;;;;20.60;4.28;;;;;;;21.62;91.18;100993.78;5245082;28;20028;-71
2023/07/30 09:20:41;;;;;;;12.20;3.35;;;;;;;22.33;87.03;101006.78;5244518;28;20388;-73
2023/07/30 09:23:13;;;;;;;11.80;4.13;;;;;;;22.65;77.19;100996.28;5260345;28;20067;-73
2023/07/30 09:25:48;;;;;;;12.55;3.53;;;;;;;23.18;79.94;100998.50;5258365;28;20116;-73
2023/07/30 09:28:20;;;;;;;11.48;3.75;;;;;;;23.05;72.11;100990.19;5253076;28;20082;-73
2023/07/30 09:31:00;;;;;;;13.15;2.90;;;;;;;23.87;72.87;100998.88;5252675;28;20041;-73
2023/07/30 09:33:32;;;;;;;15.63;3.83;;;;;;;24.45;64.51;101000.31;5251053;28;20036;-74
2023/07/30 09:36:06;;;;;;;11.07;2.92;;;;;;;24.74;60.58;100982.63;5251243;28;20055;-74
2023/07/30 09:38:42;;;;;;;;;;;;;;;25.48;65.61;101006.09;5252915;28;20035;-74
2023/07/30 09:41:14;;;;;;;12.75;2.80;;;;;;;24.65;63.10;101008.66;5253507;28;19924;-74
2023/07/30 09:43:46;;;;;;;9.63;3.08;;;;;;;24.60;58.84;101003.00;5248193;28;20040;-73
2023/07/30 09:46:17;;;;;;;14.80;3.50;;;;;;;24.40;60.07;101008.88;5255390;28;20086;-73
2023/07/30 09:48:48;;;;;;;7.88;2.88;;;;;;;23.91;61.64;100996.69;5250011;28;20036;-73
2023/07/30 09:51:20;;;;;;;16.10;3.67;;;;;;;23.95;63.28;101013.22;5256922;28;20132;-73
2023/07/30 09:53:52;;;;;;;13.55;3.78;;;;;;;23.79;60.95;101005.09;5248224;28;20041;-73
2023/07/30 09:56:23;;;;;;;8.60;2.67;;;;;;;23.79;63.17;101009.63;5244505;28;20051;-74
2023/07/30 09:58:54;;;;;;;12.93;3.08;;;;;;;23.61;64.20;101008.03;5257159;28;20036;-74
2023/07/30 10:01:28;;;;;;;11.50;3.28;;;;;;;23.38;63.70;100998.09;5258496;28;20032;-75
2023/07/30 10:04:02;;;;;;;12.38;2.97;;;;;;;23.26;66.20;101015.50;5249631;28;20124;-74
2023/07/30 10:06:37;;;;;;;11.70;3.08;;;;;;;23.05;66.24;100991.03;5257117;28;20036;-75
2023/07/30 10:09:12;;;;;;;12.13;2.47;;;;;;;23.04;65.16;101012.56;5254529;28;20048;-74
2023/07/30 10:11:45;;;;;;;15.82;3.35;;;;;;;22.87;65.54;101007.25;5251541;28;20788;-74
2023/07/30 10:14:20;;;;;;;10.02;3.60;;;;;;;22.87;66.80;101022.44;5248093;28;20035;-73
2023/07/30 10:16:55;;;;;;;10.07;3.25;;;;;;;22.58;66.69;101030.81;5243555;28;20060;-73
2023/07/30 10:19:28;;;;;;;12.23;3.15;;;;;;;22.53;68.31;101035.81;5254012;28;20387;-73
2023/07/30 10:22:17;;;;;;;11.05;2.58;;;;;;;22.88;71.17;101030.31;5258053;28;20463;-73
2023/07/30 10:24:57;;;;;;;8.57;2.70;;;;;;;23.04;68.61;101025.94;5244674;28;20052;-73
2023/07/30 10:27:37;;;;;;;13.73;3.03;;;;;;;23.22;65.91;101036.38;5260969;28;20082;-73
2023/07/30 10:30:15;;;;;;;7.85;2.22;;;;;;;23.52;63.52;101038.47;5257997;28;20119;-73
2023/07/30 10:32:55;;;;;;;6.55;2.40;;;;;;;23.48;61.91;101027.31;5256380;28;20069;-73
2023/07/30 10:35:34;;;;;;;7.82;2.53;;;;;;;23.40;61.17;101044.19;5247924;28;21348;-74
2023/07/30 10:38:34;;;;;;;7.53;2.03;;;;;;;23.27;60.91;101038.53;5253436;28;20040;-73
2023/07/30 10:41:06;;;;;;;12.02;3.45;;;;;;;23.01;61.24;101056.47;5252067;28;20029;-74
2023/07/30 10:43:50;;;;;;;7.13;1.90;;;;;;;23.11;61.99;101050.94;5249951;28;20480;-75
2023/07/30 10:46:21;;;;;;;8.23;2.10;;;;;;;23.09;62.39;101047.63;5226832;28;20075;-74
2023/07/30 10:48:52;;;;;;;6.55;1.92;;;;;;;23.38;61.16;101062.22;5255360;28;20047;-74
2023/07/30 10:51:24;;;;;;;8.75;2.88;;;;;;;23.21;60.13;101051.56;5255021;28;20037;-80
2023/07/30 10:53:55;;;;;;;9.20;2.30;;;;;;;23.16;64.91;101048.56;5247904;28;20032;-75
2023/07/30 10:56:27;;;;;;;6.45;1.80;;;;;;;23.00;64.56;101045.97;5244594;28;20040;-74
2023/07/30 10:58:59;;;;;;;8.48;1.73;;;;;;;23.10;66.90;101049.28;5257246;28;20047;-73
2023/07/30 11:01:30;;;;;;;8.15;2.38;;;;;;;22.76;70.08;101050.34;5255679;28;20028;-73
2023/07/30 11:04:06;;;;;;;8.73;2.60;;;;;;;22.90;69.04;101049.63;5249459;28;20319;-73
2023/07/30 11:06:38;;;;;;;6.75;2.05;;;;;;;22.85;67.77;101051.97;5256854;28;20075;-73
2023/07/30 11:09:21;;;;;;;8.95;2.05;;;;;;;23.02;70.38;101062.66;5256004;28;20502;-74
2023/07/30 11:11:54;;;;;;;7.00;2.45;;;;;;;22.47;80.61;101066.66;5270968;28;20041;-73
2023/07/30 11:14:27;;;;;;;7.03;1.98;;;;;;;22.49;76.88;101071.81;5268963;28;20648;-73
2023/07/30 11:16:59;;;;;;;9.30;2.67;;;;;;;22.41;80.45;101077.97;5274273;28;20032;-73
2023/07/30 11:19:33;;;;;;;12.43;2.53;;;;;;;22.10;80.70;101079.44;5274436;28;20055;-73
2023/07/30 11:22:06;;;;;;;7.40;2.10;;;;;;;22.25;75.75;101073.47;5256089;28;20442;-73
2023/07/30 11:24:38;;;;;;;9.05;2.88;;;;;;;22.29;70.81;101081.97;5273215;28;20042;-73
2023/07/30 11:27:09;;;;;;;6.93;2.05;;;;;;;22.51;70.73;101077.00;5273356;28;20064;-73
2023/07/30 11:29:41;;;;;;;6.13;1.83;;;;;;;22.75;69.17;101083.34;5256591;28;20039;-73
2023/07/30 11:32:12;;;;;;;6.80;2.28;;;;;;;23.12;68.45;101084.66;5259260;28;20078;-73
2023/07/30 11:34:43;;;;;;;6.50;1.90;;;;;;;23.30;67.25;101075.63;5274315;28;20064;-72